John P. Pasentine — WDD6356 — position and weather

sailwx.info

Track history (hours):
 
Tides and Currents Weather Stations Pressure Air Temp Water Temp Dewpoint Dewpoint Depression Visibility Wind Speed Wind Dir Waves Ship Positions

John P. Pasentine

Owner: Florida Marine, LLC, Mandeville, LA. More information available from US FCC via Universal Licensing System and Coast Guard Vessel Documentation Center.

Last reported at 2017-Sep-19 12:00 UTC. Time now 2017-Sep-24 15:42 UTC.
Position N 30°03' W 093°43'.

Length 27 m; draft 3.2 m.

Type: Ship (hazmat cat C). MMSI: 367162830.

Date/timePositionNaut miles runAvg speedWind from/ knotsBaromVisibWave heightAir tempDewpointWater temp
2017-Sep-19 12:00N 30°03' W 093°43'3 6.3
2017-Sep-19 11:30N 30°04' W 093°40'4 6.9
2017-Sep-19 10:59N 30°04' W 093°35'3 6.8
2017-Sep-19 10:30N 30°04' W 093°32'3 6.4
2017-Sep-19 10:00N 30°04' W 093°28'3 5.2
2017-Sep-19 09:30N 30°04' W 093°25'3 5.7
2017-Sep-19 09:00N 30°04' W 093°22'2 4.6
2017-Sep-19 08:30N 30°05' W 093°20'2 4.1
2017-Sep-19 08:00N 30°05' W 093°17'2 4.4
2017-Sep-19 07:30N 30°04' W 093°16'1 2.4
2017-Sep-19 07:00N 30°02' W 093°16'2 4.9
2017-Sep-19 06:30N 30°00' W 093°14'3 6.4
2017-Sep-19 06:00N 29°58' W 093°11'3 6.5
2017-Sep-19 05:30N 29°56' W 093°08'3 5.3
2017-Sep-19 05:00N 29°56' W 093°05'40 6.3
2017-Sep-18 22:36N 29°50' W 092°19'1 6.6
2017-Sep-18 22:28N 29°50' W 092°18'3 6.4
2017-Sep-18 22:00N 29°48' W 092°16'3 6.8
2017-Sep-18 21:30N 29°47' W 092°12'1 1.3
2017-Sep-18 21:00N 29°47' W 092°11'2 4.4
2017-Sep-18 20:30N 29°47' W 092°09'3 6.3
2017-Sep-18 20:00N 29°48' W 092°05'  
2017-Sep-16 00:31N 29°50' W 092°00'1 6.0
2017-Sep-16 00:17N 29°49' W 092°02'1 5.5
2017-Sep-16 00:01N 29°49' W 092°03'3 5.4
2017-Sep-15 23:31N 29°48' W 092°06'3 5.6
2017-Sep-15 23:00N 29°47' W 092°09'3 5.6
2017-Sep-15 22:30N 29°47' W 092°12'2 4.2
2017-Sep-15 22:00N 29°48' W 092°15'3 5.9
2017-Sep-15 21:30N 29°50' W 092°18'40 3.6
2017-Sep-15 10:30N 29°56' W 093°03'2 4.7
2017-Sep-15 10:00N 29°56' W 093°06'2 4.3
2017-Sep-15 09:31N 29°56' W 093°08'2 4.0
2017-Sep-15 09:00N 29°57' W 093°10'2 4.4
2017-Sep-15 08:30N 29°59' W 093°12'2 4.3
2017-Sep-15 08:00N 30°00' W 093°14'2 3.5
2017-Sep-15 07:30N 30°02' W 093°14'2 3.9
2017-Sep-15 07:00N 30°03' W 093°16'2 4.7
2017-Sep-15 06:30N 30°05' W 093°17'1 2.5
2017-Sep-15 06:00N 30°06' W 093°18'1 2.5
2017-Sep-15 05:31N 30°05' W 093°20'2 4.1
2017-Sep-15 05:01N 30°04' W 093°21'2 5.0
2017-Sep-15 04:31N 30°04' W 093°24'3 5.9
2017-Sep-15 04:00N 30°04' W 093°27'3 5.9
2017-Sep-15 03:30N 30°04' W 093°31'3 5.9
2017-Sep-15 02:59N 30°04' W 093°34'3 5.8
2017-Sep-15 02:27N 30°04' W 093°38'3 5.6
2017-Sep-15 01:59N 30°04' W 093°41'1 0.0
2017-Sep-14 00:19N 30°04' W 093°40'3 7.8
2017-Sep-13 23:58N 30°04' W 093°36'3 6.6
2017-Sep-13 23:31N 30°04' W 093°33'3 6.3
2017-Sep-13 23:00N 30°04' W 093°29'3 6.4
2017-Sep-13 22:30N 30°04' W 093°26'3 6.2
2017-Sep-13 22:00N 30°04' W 093°22'2 4.0
2017-Sep-13 21:30N 30°05' W 093°20'2 3.7
2017-Sep-13 21:00N 30°06' W 093°19'2 4.5
2017-Sep-13 20:30N 30°05' W 093°17'0 0.1
2017-Sep-13 20:00N 30°05' W 093°17'0 0.0
2017-Sep-13 19:31N 30°05' W 093°17'0 0.1
2017-Sep-13 19:00N 30°05' W 093°17'0 0.0
2017-Sep-13 18:31N 30°05' W 093°17'0 0.1
2017-Sep-13 18:00N 30°05' W 093°17'2 3.6
2017-Sep-13 17:31N 30°03' W 093°16'3 6.3
2017-Sep-13 17:00N 30°01' W 093°14'1 1.4
2017-Sep-13 16:30N 29°60' W 093°13'3 6.7
2017-Sep-13 16:00N 29°57' W 093°11'3 5.8
2017-Sep-13 15:30N 29°56' W 093°08'40 6.3
2017-Sep-13 09:06N 29°51' W 092°22'0 4.6
2017-Sep-13 09:00N 29°51' W 092°21'2 4.8
2017-Sep-13 08:30N 29°50' W 092°19'1 2.7
2017-Sep-13 08:00N 29°49' W 092°17'2 4.6
2017-Sep-13 07:30N 29°48' W 092°15'3 5.1
2017-Sep-13 07:00N 29°47' W 092°12'2 3.0
2017-Sep-13 06:31N 29°47' W 092°11'0 0.1
2017-Sep-13 06:01N 29°47' W 092°11'1 1.3
2017-Sep-13 05:30N 29°47' W 092°10'3 5.8
2017-Sep-13 05:00N 29°48' W 092°07'3 6.6
2017-Sep-13 04:30N 29°49' W 092°03'  
Track history (hours):
 
Tides and Currents Weather Stations Pressure Air Temp Water Temp Dewpoint Dewpoint Depression Visibility Wind Speed Wind Dir Waves Ship Positions

John P. Pasentine

Owner: Florida Marine, LLC, Mandeville, LA. More information available from US FCC via Universal Licensing System and Coast Guard Vessel Documentation Center.

Last reported at 2017-Sep-19 12:00 UTC. Time now 2017-Sep-24 15:42 UTC.
Position N 30°03' W 093°43'.

Length 27 m; draft 3.2 m.

Type: Ship (hazmat cat C). MMSI: 367162830.

Date/timePositionNaut miles runAvg speedWind from/ knotsBaromVisibWave heightAir tempDewpointWater temp
2017-Sep-19 12:00N 30°03' W 093°43'3 6.3
2017-Sep-19 11:30N 30°04' W 093°40'4 6.9
2017-Sep-19 10:59N 30°04' W 093°35'3 6.8
2017-Sep-19 10:30N 30°04' W 093°32'3 6.4
2017-Sep-19 10:00N 30°04' W 093°28'3 5.2
2017-Sep-19 09:30N 30°04' W 093°25'3 5.7
2017-Sep-19 09:00N 30°04' W 093°22'2 4.6
2017-Sep-19 08:30N 30°05' W 093°20'2 4.1
2017-Sep-19 08:00N 30°05' W 093°17'2 4.4
2017-Sep-19 07:30N 30°04' W 093°16'1 2.4
2017-Sep-19 07:00N 30°02' W 093°16'2 4.9
2017-Sep-19 06:30N 30°00' W 093°14'3 6.4
2017-Sep-19 06:00N 29°58' W 093°11'3 6.5
2017-Sep-19 05:30N 29°56' W 093°08'3 5.3
2017-Sep-19 05:00N 29°56' W 093°05'40 6.3
2017-Sep-18 22:36N 29°50' W 092°19'1 6.6
2017-Sep-18 22:28N 29°50' W 092°18'3 6.4
2017-Sep-18 22:00N 29°48' W 092°16'3 6.8
2017-Sep-18 21:30N 29°47' W 092°12'1 1.3
2017-Sep-18 21:00N 29°47' W 092°11'2 4.4
2017-Sep-18 20:30N 29°47' W 092°09'3 6.3
2017-Sep-18 20:00N 29°48' W 092°05'  
2017-Sep-16 00:31N 29°50' W 092°00'1 6.0
2017-Sep-16 00:17N 29°49' W 092°02'1 5.5
2017-Sep-16 00:01N 29°49' W 092°03'3 5.4
2017-Sep-15 23:31N 29°48' W 092°06'3 5.6
2017-Sep-15 23:00N 29°47' W 092°09'3 5.6
2017-Sep-15 22:30N 29°47' W 092°12'2 4.2
2017-Sep-15 22:00N 29°48' W 092°15'3 5.9
2017-Sep-15 21:30N 29°50' W 092°18'40 3.6
2017-Sep-15 10:30N 29°56' W 093°03'2 4.7
2017-Sep-15 10:00N 29°56' W 093°06'2 4.3
2017-Sep-15 09:31N 29°56' W 093°08'2 4.0
2017-Sep-15 09:00N 29°57' W 093°10'2 4.4
2017-Sep-15 08:30N 29°59' W 093°12'2 4.3
2017-Sep-15 08:00N 30°00' W 093°14'2 3.5
2017-Sep-15 07:30N 30°02' W 093°14'2 3.9
2017-Sep-15 07:00N 30°03' W 093°16'2 4.7
2017-Sep-15 06:30N 30°05' W 093°17'1 2.5
2017-Sep-15 06:00N 30°06' W 093°18'1 2.5
2017-Sep-15 05:31N 30°05' W 093°20'2 4.1
2017-Sep-15 05:01N 30°04' W 093°21'2 5.0
2017-Sep-15 04:31N 30°04' W 093°24'3 5.9
2017-Sep-15 04:00N 30°04' W 093°27'3 5.9
2017-Sep-15 03:30N 30°04' W 093°31'3 5.9
2017-Sep-15 02:59N 30°04' W 093°34'3 5.8
2017-Sep-15 02:27N 30°04' W 093°38'3 5.6
2017-Sep-15 01:59N 30°04' W 093°41'1 0.0
2017-Sep-14 00:19N 30°04' W 093°40'3 7.8
2017-Sep-13 23:58N 30°04' W 093°36'3 6.6
2017-Sep-13 23:31N 30°04' W 093°33'3 6.3
2017-Sep-13 23:00N 30°04' W 093°29'3 6.4
2017-Sep-13 22:30N 30°04' W 093°26'3 6.2
2017-Sep-13 22:00N 30°04' W 093°22'2 4.0
2017-Sep-13 21:30N 30°05' W 093°20'2 3.7
2017-Sep-13 21:00N 30°06' W 093°19'2 4.5
2017-Sep-13 20:30N 30°05' W 093°17'0 0.1
2017-Sep-13 20:00N 30°05' W 093°17'0 0.0
2017-Sep-13 19:31N 30°05' W 093°17'0 0.1
2017-Sep-13 19:00N 30°05' W 093°17'0 0.0
2017-Sep-13 18:31N 30°05' W 093°17'0 0.1
2017-Sep-13 18:00N 30°05' W 093°17'2 3.6
2017-Sep-13 17:31N 30°03' W 093°16'3 6.3
2017-Sep-13 17:00N 30°01' W 093°14'1 1.4
2017-Sep-13 16:30N 29°60' W 093°13'3 6.7
2017-Sep-13 16:00N 29°57' W 093°11'3 5.8
2017-Sep-13 15:30N 29°56' W 093°08'40 6.3
2017-Sep-13 09:06N 29°51' W 092°22'0 4.6
2017-Sep-13 09:00N 29°51' W 092°21'2 4.8
2017-Sep-13 08:30N 29°50' W 092°19'1 2.7
2017-Sep-13 08:00N 29°49' W 092°17'2 4.6
2017-Sep-13 07:30N 29°48' W 092°15'3 5.1
2017-Sep-13 07:00N 29°47' W 092°12'2 3.0
2017-Sep-13 06:31N 29°47' W 092°11'0 0.1
2017-Sep-13 06:01N 29°47' W 092°11'1 1.3
2017-Sep-13 05:30N 29°47' W 092°10'3 5.8
2017-Sep-13 05:00N 29°48' W 092°07'3 6.6
2017-Sep-13 04:30N 29°49' W 092°03'  

Dump ship's entire track history